createdAt,value
2017-06-09T13:20:10.359Z,84.7
2017-06-09T13:21:23.254Z,84.12
2017-06-09T13:22:36.000Z,85.28
2017-06-09T13:23:48.403Z,85.47
2017-06-09T13:25:00.802Z,84.8
2017-06-09T13:26:13.214Z,84.99
2017-06-09T13:27:25.622Z,84.7
2017-06-09T13:28:38.523Z,84.65
2017-06-09T13:29:51.438Z,84.84
2017-06-09T13:31:04.414Z,84.75
2017-06-09T13:32:16.856Z,84.07
2017-06-09T13:33:29.955Z,83.73
2017-06-09T13:34:42.359Z,83.34
2017-06-09T13:35:54.763Z,83.92
2017-06-09T13:37:07.660Z,83.05
2017-06-09T13:38:20.557Z,83.44
2017-06-09T13:39:33.451Z,83.53
2017-06-09T13:40:46.346Z,83.05
2017-06-09T13:41:58.749Z,82.96
2017-06-09T13:43:11.647Z,82.96
2017-06-09T13:44:24.050Z,83.34
2017-06-09T13:45:36.654Z,83.92
2017-06-09T13:46:49.549Z,83.63
2017-06-09T13:48:02.463Z,84.11
2017-06-09T13:49:14.871Z,83.73
2017-06-09T13:50:27.768Z,83.83
2017-06-09T13:51:40.663Z,83.67
2017-06-09T13:52:53.559Z,83.48
2017-06-09T13:54:05.963Z,83.09
2017-06-09T13:55:18.366Z,83.19
2017-06-09T13:56:31.461Z,84.59
2017-06-09T13:57:44.356Z,84.31
2017-06-09T13:58:56.279Z,84.21
2017-06-09T14:00:09.176Z,84.89
2017-06-09T14:01:21.584Z,85.17
2017-06-09T14:02:34.190Z,84.79
2017-06-09T14:03:47.085Z,84.41
2017-06-09T14:04:59.995Z,84.74
2017-06-09T14:06:12.889Z,83.96
2017-06-09T14:07:25.782Z,83.19
2017-06-09T14:08:38.679Z,83
2017-06-09T14:09:51.089Z,82.71
2017-06-09T14:11:03.985Z,82.42
2017-06-09T14:12:16.880Z,82.81
2017-06-09T14:13:29.774Z,82.32
2017-06-09T14:14:42.184Z,82.23
2017-06-09T14:15:54.588Z,82.71
2017-06-09T14:17:07.492Z,82.32
2017-06-09T14:18:19.901Z,82.81
2017-06-09T14:19:32.792Z,83.19
2017-06-09T14:20:45.201Z,82.81
2017-06-09T14:21:58.100Z,82.23
2017-06-09T14:23:10.024Z,82.71
2017-06-09T14:24:22.641Z,83.09
2017-06-09T14:25:35.533Z,83.87
2017-06-09T14:26:47.942Z,83.48
2017-06-09T14:28:00.346Z,84.11
2017-06-09T14:29:13.240Z,85.17
2017-06-09T14:30:25.647Z,85.12
2017-06-09T14:31:38.543Z,84.5
2017-06-09T14:32:50.957Z,85.31
2017-06-09T14:34:03.852Z,84.54
2017-06-09T14:35:16.571Z,84.16
2017-06-09T14:36:29.012Z,83.87
2017-06-09T14:37:41.907Z,83.58
2017-06-09T14:38:54.802Z,82.61
2017-06-09T14:40:07.218Z,83.29
2017-06-09T14:41:19.645Z,82.9
2017-06-09T14:42:32.543Z,83
2017-06-09T14:43:44.963Z,82.81
2017-06-09T14:44:57.858Z,82.81
2017-06-09T14:46:10.755Z,82.42
2017-06-09T14:47:22.673Z,83.25
2017-06-09T14:48:35.578Z,83.63
2017-06-09T14:49:48.568Z,83.05
2017-06-09T14:51:01.463Z,83.09
2017-06-09T14:52:14.362Z,83
2017-06-09T14:53:27.259Z,82.13
2017-06-09T14:54:39.663Z,81.74
2017-06-09T14:55:52.764Z,81.84
2017-06-09T14:57:05.661Z,81.65
2017-06-09T14:58:18.071Z,81.65
2017-06-09T14:59:29.995Z,81.65
2017-06-09T15:00:42.894Z,81.26
2017-06-09T15:01:55.789Z,81.35
2017-06-09T15:03:08.202Z,81.55
2017-06-09T15:04:21.100Z,81.74
2017-06-09T15:05:33.997Z,81.74
2017-06-09T15:06:47.112Z,81.65
2017-06-09T15:07:59.520Z,81.99
2017-06-09T15:09:11.939Z,82.18
2017-06-09T15:10:23.861Z,82.86
2017-06-09T15:11:36.959Z,82.67
2017-06-09T15:12:49.857Z,82.76
2017-06-09T15:14:02.749Z,82.86
2017-06-09T15:15:15.159Z,82.76
2017-06-09T15:16:27.565Z,82.09
2017-06-09T15:17:40.663Z,82.28
2017-06-09T15:18:53.557Z,81.99
2017-06-09T15:20:05.965Z,82.86
2017-06-09T15:21:18.868Z,82.67
2017-06-09T15:22:31.767Z,83.11
2017-06-09T15:23:44.672Z,83.01
2017-06-09T15:24:57.570Z,83.53
2017-06-09T15:26:09.489Z,83.53
2017-06-09T15:27:21.910Z,83.05
2017-06-09T15:28:35.011Z,83.05
2017-06-09T15:29:47.425Z,82.86
2017-06-09T15:31:00.349Z,82.96
2017-06-09T15:32:12.778Z,82.48
2017-06-09T15:33:25.898Z,81.9
2017-06-09T15:34:38.400Z,82.09
2017-06-09T15:35:50.498Z,82.28
2017-06-09T15:37:03.569Z,81.99
2017-06-09T15:38:16.615Z,82.38
2017-06-09T15:39:29.584Z,81.8
2017-06-09T15:40:42.604Z,81.8
2017-06-09T15:41:55.579Z,82.13
2017-06-09T15:43:08.030Z,82.23
2017-06-09T15:44:20.508Z,81.45
2017-06-09T15:45:32.444Z,81.74
2017-06-09T15:46:45.363Z,82.13
2017-06-09T15:47:58.280Z,82.61
2017-06-09T15:49:11.199Z,82.13
2017-06-09T15:50:24.115Z,82.32
2017-06-09T15:51:37.036Z,82.23
2017-06-09T15:52:49.461Z,82.28
2017-06-09T15:54:02.392Z,83.15
2017-06-09T15:55:15.038Z,83.53
2017-06-09T15:56:27.954Z,83.15
2017-06-09T15:57:40.381Z,83.34
2017-06-09T15:58:53.319Z,83.25
2017-06-09T16:00:05.751Z,83.15
2017-06-09T16:01:18.190Z,82.61
2017-06-09T16:02:31.107Z,82.71
2017-06-09T16:03:44.022Z,82.13
2017-06-09T16:04:56.458Z,82.13
2017-06-09T16:06:08.894Z,81.74
2017-06-09T16:07:21.838Z,81.93
2017-06-09T16:08:34.757Z,81.35
2017-06-09T16:09:47.184Z,81.74
2017-06-09T16:11:00.102Z,82.81
2017-06-09T16:12:13.018Z,82.32
2017-06-09T16:13:25.930Z,82.23
2017-06-09T16:14:38.800Z,81.45
2017-06-09T16:15:51.586Z,82.13
2017-06-09T16:17:04.565Z,82.23
2017-06-09T16:18:17.346Z,82.03
2017-06-09T16:19:30.138Z,81.55
2017-06-09T16:20:42.437Z,81.55
2017-06-09T16:21:54.737Z,82.61
2017-06-09T16:23:07.717Z,82.09
2017-06-09T16:24:20.510Z,82.42
2017-06-09T16:25:32.819Z,81.74
2017-06-09T16:26:45.601Z,81.65
2017-06-09T16:27:58.078Z,81.26
2017-06-09T16:29:10.388Z,81.6
2017-06-09T16:30:23.173Z,81.8
2017-06-09T16:31:36.162Z,81.7
2017-06-09T16:32:48.951Z,82.09
2017-06-09T16:34:01.744Z,81.51
2017-06-09T16:35:14.051Z,81.41
2017-06-09T16:36:26.348Z,81.9
2017-06-09T16:37:39.329Z,82.48
2017-06-09T16:38:51.153Z,81.9
2017-06-09T16:40:03.945Z,81.51
2017-06-09T16:41:16.731Z,81.12
2017-06-09T16:42:29.714Z,81.32
2017-06-09T16:43:42.496Z,80.16
2017-06-09T16:44:55.296Z,79.19
2017-06-09T16:46:07.607Z,79.19
2017-06-09T16:47:20.387Z,79.49
2017-06-09T16:48:33.171Z,79.33
2017-06-09T16:49:45.983Z,77.78
2017-06-09T16:50:58.766Z,77.69
2017-06-09T16:52:11.063Z,77.55
2017-06-09T16:53:23.361Z,78.33
2017-06-09T16:54:36.143Z,77.78
2017-06-09T16:55:48.923Z,77.78
2017-06-09T16:57:00.747Z,77.4
2017-06-09T16:58:12.565Z,77.01
2017-06-09T16:59:25.391Z,76.53
2017-06-09T17:00:37.807Z,76.63
2017-06-09T17:01:50.712Z,76.43
2017-06-09T17:03:03.130Z,74.79
2017-06-09T17:04:16.039Z,74.99
2017-06-09T17:05:28.966Z,74.99
2017-06-09T17:06:41.866Z,76.05
2017-06-09T17:07:54.760Z,76.72
2017-06-09T17:09:07.662Z,76.34
2017-06-09T17:10:20.765Z,77.21
2017-06-09T17:11:33.661Z,76.43
2017-06-09T17:12:46.560Z,77.17
2017-06-09T17:13:59.451Z,77.4
2017-06-09T17:39:54.141Z,79.29
2017-06-09T17:41:07.136Z,78.94
2017-06-09T17:42:20.118Z,78.75
2017-06-09T17:43:32.607Z,79
2017-06-09T17:44:45.104Z,79.29
2017-06-09T17:45:58.305Z,79.49
2017-06-09T17:47:11.307Z,79.39
2017-06-09T17:48:23.813Z,79.58
2017-06-09T17:49:36.817Z,79.68
2017-06-09T17:50:49.330Z,79.49
2017-06-09T17:52:02.528Z,79
2017-06-09T17:53:15.032Z,79.19
2017-06-09T17:54:28.036Z,79.19
2017-06-09T17:55:40.541Z,79.49
2017-06-09T17:56:53.537Z,79.68
2017-06-09T17:58:06.042Z,80.31
2017-06-09T17:59:18.504Z,80.69
2017-06-09T18:00:31.422Z,79.87
2017-06-09T18:01:44.338Z,79.39
2017-06-09T18:02:56.964Z,79.58
2017-06-09T18:04:09.391Z,79.49
2017-06-09T18:05:21.820Z,79.58
2017-06-09T18:06:34.735Z,79.44
2017-06-09T18:07:47.653Z,79.39
2017-06-09T18:09:00.566Z,79.19
2017-06-09T18:10:13.489Z,78.42
2017-06-09T18:11:25.922Z,77.55
2017-06-09T18:12:38.842Z,78.42
2017-06-09T18:13:51.270Z,77.94
2017-06-09T18:15:04.190Z,78.03
2017-06-09T18:16:17.109Z,77.55
2017-06-09T18:17:30.032Z,77.65
2017-06-09T18:18:42.457Z,77.36
2017-06-09T18:19:55.381Z,78.29
2017-06-09T18:21:07.809Z,78.29
2017-06-09T18:22:20.237Z,78.48
2017-06-09T18:23:32.666Z,78.71
2017-06-09T18:24:45.102Z,77.61
2017-06-09T18:25:57.530Z,78.33
2017-06-09T18:27:09.957Z,78.71
2017-06-09T18:28:22.878Z,78.33
2017-06-09T18:29:35.753Z,77.71
2017-06-09T18:30:47.567Z,78.19
2017-06-09T18:32:00.348Z,78.29
2017-06-09T18:33:13.129Z,79.35
2017-06-09T18:34:25.425Z,79.25
2017-06-09T18:35:37.727Z,79.25
2017-06-09T18:36:49.542Z,78.63
2017-06-09T18:38:01.867Z,79.79
2017-06-09T18:39:14.654Z,79.98
2017-06-09T18:40:27.447Z,79.6
2017-06-09T18:41:39.756Z,80.37
2017-06-09T18:42:52.054Z,80.56
2017-06-09T18:44:04.352Z,81.14
2017-06-09T18:45:17.137Z,80.08
2017-06-09T18:46:30.420Z,80.37
2017-06-09T18:47:43.200Z,80.56
2017-06-09T18:48:55.985Z,79.98
2017-06-09T18:50:08.285Z,80.27
2017-06-09T18:51:21.286Z,80.66
2017-06-09T18:52:34.066Z,81.18
2017-06-09T18:53:46.845Z,80.69
2017-06-09T18:54:59.150Z,81.24
2017-06-09T18:56:11.928Z,81.18
2017-06-09T18:57:24.431Z,81.27
2017-06-09T18:58:37.222Z,80.89
2017-06-09T18:59:50.008Z,80.37
2017-06-09T19:01:02.794Z,81.18
2017-06-09T19:02:15.294Z,81.66
2017-06-09T19:03:28.084Z,81.81
2017-06-09T19:04:40.386Z,82.1
2017-06-09T19:05:53.176Z,81.52
2017-06-09T19:07:05.953Z,81.62
2017-06-09T19:08:18.740Z,81.52
2017-06-09T19:09:31.517Z,81.43
2017-06-09T19:10:44.296Z,82.1
2017-06-09T19:11:56.595Z,82.29
2017-06-09T19:13:09.091Z,81.91
2017-06-09T19:14:21.395Z,82.01
2017-06-09T19:15:34.186Z,82.68
2017-06-09T19:16:46.973Z,82.2
2017-06-09T19:17:59.754Z,82.78
2017-06-09T19:19:12.251Z,82.2
2017-06-09T19:20:25.032Z,82.2
2017-06-09T19:21:37.330Z,81.33
2017-06-09T19:22:49.634Z,81.52
2017-06-09T19:24:02.430Z,81.72
2017-06-09T19:25:15.208Z,81.43
2017-06-09T19:26:28.013Z,81.68
2017-06-09T19:27:40.790Z,81.58
2017-06-09T19:28:53.577Z,81.39
2017-06-09T19:30:06.459Z,81.29
2017-06-09T19:31:18.275Z,81.96
2017-06-09T19:32:31.058Z,82.16
2017-06-09T19:33:43.864Z,82.21
2017-06-09T19:34:56.848Z,82.7
2017-06-09T19:36:09.146Z,83.08
2017-06-09T19:37:21.443Z,82.89
2017-06-09T19:38:34.223Z,82.98
2017-06-09T19:39:47.016Z,83.95
2017-06-09T19:40:59.804Z,83.52
2017-06-09T19:42:11.619Z,84.23
2017-06-09T19:43:24.403Z,83.91
2017-06-09T19:44:37.183Z,83.81
2017-06-09T19:45:53.009Z,84.29
2017-06-09T19:47:05.796Z,84.87
2017-06-09T19:48:18.574Z,84.77
2017-06-09T19:49:30.868Z,84.1
2017-06-09T19:50:43.651Z,84.58
2017-06-09T19:51:56.148Z,84.1
2017-06-09T19:53:08.931Z,84.67
2017-06-09T19:54:21.712Z,84.87
2017-06-09T19:55:34.007Z,85.02
2017-06-09T19:56:46.802Z,84.77
2017-06-09T19:57:59.101Z,83.91
2017-06-09T19:59:11.435Z,83.96
2017-06-09T20:00:24.337Z,84.34
2017-06-09T20:01:37.241Z,84.63
2017-06-09T20:02:50.137Z,84.44
2017-06-09T20:04:03.030Z,84.83
2017-06-09T20:05:15.434Z,84.92
2017-06-09T20:06:27.852Z,85.4
2017-06-09T20:07:40.752Z,84.92
2017-06-09T20:08:53.647Z,85.6
2017-06-09T20:10:06.055Z,85.4
2017-06-09T20:11:18.953Z,85.78
2017-06-09T20:12:31.849Z,85.4
2017-06-09T20:13:44.747Z,85.78
2017-06-09T20:14:57.159Z,85.11
2017-06-09T20:16:10.062Z,84.16
2017-06-09T20:17:22.961Z,84.54
2017-06-09T20:18:35.562Z,84.88
2017-06-09T20:19:48.461Z,84.73
2017-06-09T20:21:01.357Z,85.55
2017-06-09T20:22:13.770Z,84.92
2017-06-09T20:23:26.670Z,84.83
2017-06-09T20:24:39.079Z,85.11
2017-06-09T20:25:50.995Z,85.6
2017-06-09T20:27:03.403Z,85.6
2017-06-09T20:28:15.815Z,84.92
2017-06-09T20:29:28.224Z,85.11
2017-06-09T20:30:41.124Z,85.4
2017-06-09T20:31:54.020Z,84.92
2017-06-09T20:33:06.428Z,84.25
2017-06-09T20:34:19.324Z,84.73
2017-06-09T20:35:31.240Z,84.63
2017-06-09T20:36:44.135Z,84.34
2017-06-09T20:37:56.541Z,83.77
2017-06-09T20:39:09.462Z,83.73
2017-06-09T20:40:22.559Z,83.86
2017-06-09T20:41:35.459Z,82.61
2017-06-09T20:42:48.358Z,83.58
2017-06-09T20:44:00.763Z,82.48
2017-06-09T20:45:13.552Z,82.86
2017-06-09T20:46:25.370Z,82.67
2017-06-09T20:47:38.153Z,82.76
2017-06-09T20:48:50.450Z,82.19
2017-06-09T20:50:03.222Z,81.99
2017-06-09T20:51:14.560Z,82.19
2017-06-09T20:52:27.335Z,81.61
2017-06-09T20:53:40.311Z,82.57
2017-06-09T20:54:52.606Z,82.76
2017-06-09T20:56:05.388Z,81.32
2017-06-09T20:57:18.178Z,81.42
2017-06-09T20:58:30.955Z,81.61
2017-06-09T20:59:43.737Z,81.61
2017-06-09T21:00:57.323Z,81.13
2017-06-09T21:02:09.149Z,79.98
2017-06-09T21:03:21.928Z,79.98
2017-06-09T21:04:48.303Z,81.09
2017-06-09T21:06:01.094Z,81.19
2017-06-09T21:07:13.402Z,80.99
2017-06-09T21:08:25.716Z,80.71
2017-06-09T21:09:38.496Z,80.61
2017-06-09T21:10:51.274Z,81.04
2017-06-09T21:12:04.057Z,79.4
2017-06-09T21:13:16.852Z,79.07
2017-06-09T21:14:29.631Z,78.5
2017-06-09T21:15:42.406Z,79.07
2017-06-09T21:16:55.182Z,79.55
2017-06-09T21:18:07.477Z,79.17
2017-06-09T21:19:19.771Z,79.46
2017-06-09T21:20:32.068Z,78.78
2017-06-09T21:21:44.846Z,77.92
2017-06-09T21:22:57.620Z,78.69
2017-06-09T21:24:10.405Z,77.83
2017-06-09T21:25:21.739Z,77.25
2017-06-09T21:26:34.040Z,77.44
2017-06-09T21:27:46.819Z,76.77
2017-06-09T21:28:59.600Z,76.77
2017-06-09T21:30:12.381Z,75.52
2017-06-09T21:31:25.165Z,76
2017-06-09T21:32:37.942Z,76.06
2017-06-09T21:33:50.252Z,76.39
2017-06-09T21:35:03.029Z,76.54
2017-06-09T21:36:15.326Z,76.06
2017-06-09T21:37:28.104Z,76.92
2017-06-09T21:38:39.918Z,77.11
2017-06-09T21:39:52.704Z,76.73
2017-06-09T21:41:05.481Z,76.73
2017-06-09T21:42:18.257Z,76.92
2017-06-09T21:43:31.035Z,77.5
2017-06-09T21:44:43.331Z,78.08
2017-06-09T21:45:55.631Z,77.11
2017-06-09T21:47:08.407Z,76.82
2017-06-09T21:48:21.215Z,77.31
2017-06-09T21:49:33.995Z,77.11
2017-06-09T21:50:46.774Z,77.21
2017-06-09T21:51:59.550Z,77.01
2017-06-09T21:53:11.373Z,76.64
2017-06-09T21:54:24.980Z,76.64
2017-06-09T21:55:37.782Z,76.82
2017-06-09T21:56:49.599Z,76.73
2017-06-09T21:58:01.897Z,77.11
2017-06-09T21:59:14.196Z,76.92
2017-06-09T22:00:26.500Z,76.92
2017-06-09T22:01:39.281Z,77.46
2017-06-09T22:02:52.061Z,76.98
2017-06-09T22:04:04.839Z,76.64
2017-06-09T22:05:17.137Z,76.73
2017-06-09T22:06:29.917Z,76.64
2017-06-09T22:07:42.698Z,76.54
2017-06-09T22:08:55.473Z,76.98
2017-06-09T22:10:07.969Z,77.17
2017-06-09T22:11:19.779Z,77.26
2017-06-09T22:12:32.555Z,77.46
2017-06-09T22:13:45.333Z,77.84
2017-06-09T22:14:58.362Z,78.42
2017-06-09T22:16:10.301Z,78.61
2017-06-09T22:17:23.214Z,77.84
2017-06-09T22:18:36.130Z,78.23
2017-06-09T22:19:49.046Z,78.8
2017-06-09T22:21:01.965Z,78.77
2017-06-09T22:22:14.390Z,78.86
2017-06-09T22:23:27.306Z,78.32
2017-06-09T22:24:38.751Z,78.99
2017-06-09T22:25:51.869Z,78.7
2017-06-09T22:27:04.290Z,78.9
2017-06-09T22:28:16.713Z,78.9
2017-06-09T22:29:29.625Z,79.38
2017-06-09T22:30:42.537Z,78.9
2017-06-09T22:31:55.652Z,78.99
2017-06-09T22:33:08.569Z,78.8
2017-06-09T22:34:20.501Z,78.52
2017-06-09T22:35:33.418Z,78.03
2017-06-09T22:36:46.332Z,79.09
2017-06-09T22:37:59.251Z,78.77
2017-06-09T22:39:10.695Z,78.67
2017-06-09T22:40:23.612Z,79.72
2017-06-09T22:41:36.036Z,79.24
2017-06-09T22:42:47.674Z,79.34
2017-06-09T22:44:00.099Z,78.96
2017-06-09T22:45:13.019Z,79.24
2017-06-09T22:46:24.951Z,78.38
2017-06-09T22:47:38.063Z,78.86
2017-06-09T22:48:50.978Z,78.77
2017-06-09T22:50:03.898Z,78.67
2017-06-09T22:51:16.811Z,78.96
2017-06-09T22:52:29.234Z,78.86
2017-06-09T22:53:42.353Z,79.14
2017-06-09T22:54:55.273Z,78.96
2017-06-09T22:56:07.694Z,78.86
2017-06-09T22:57:20.610Z,78.9
2017-06-09T22:58:33.743Z,78.67
2017-06-09T22:59:45.712Z,78.9
2017-06-09T23:00:58.570Z,79.47
2017-06-09T23:02:11.433Z,79.63
2017-06-09T23:03:24.292Z,79.34
2017-06-09T23:04:37.157Z,79.53
2017-06-09T23:05:50.020Z,79.82
2017-06-09T23:07:02.391Z,79.82
2017-06-09T23:08:15.251Z,80.4
2017-06-09T23:09:28.109Z,80.11
2017-06-09T23:10:40.971Z,79.91
2017-06-09T23:11:53.343Z,79.82
2017-06-09T23:13:06.200Z,79.91
2017-06-09T23:14:18.087Z,80.49
2017-06-09T23:15:30.947Z,80.2
2017-06-09T23:16:43.806Z,80.3
2017-06-09T23:17:56.669Z,79.38
2017-06-09T23:19:09.528Z,79.28
2017-06-09T23:20:22.385Z,79.34
2017-06-09T23:21:35.250Z,80.3
2017-06-09T23:22:47.622Z,80.97
2017-06-09T23:24:00.476Z,81.16
2017-06-09T23:25:13.336Z,81.07
2017-06-09T23:26:26.393Z,80.3
2017-06-09T23:27:39.253Z,80.4
2017-06-09T23:28:51.631Z,80.2
2017-06-09T23:30:04.008Z,79.82
2017-06-09T23:31:17.063Z,79.63
2017-06-09T23:32:29.419Z,79.82
2017-06-09T23:33:42.198Z,79.82
2017-06-09T23:34:54.492Z,79.82
2017-06-09T23:36:06.786Z,79.82
2017-06-09T23:37:19.080Z,79.34
2017-06-09T23:38:31.384Z,79.72
2017-06-09T23:39:43.683Z,80.3
2017-06-09T23:40:56.464Z,79.82
2017-06-09T23:42:09.277Z,79.91
2017-06-09T23:43:22.078Z,80.3
2017-06-09T23:44:34.875Z,79.91
2017-06-09T23:45:46.718Z,79.91
2017-06-09T23:46:59.537Z,79.72
2017-06-09T23:48:11.829Z,80.35
2017-06-09T23:49:24.126Z,79.72
2017-06-09T23:50:36.422Z,80.87
2017-06-09T23:51:48.721Z,80.3
2017-06-09T23:53:01.495Z,80.4
2017-06-09T23:54:13.791Z,79.82
2017-06-09T23:55:26.566Z,80.11
2017-06-09T23:56:39.345Z,79.91
2017-06-09T23:57:51.657Z,79.72
2017-06-09T23:59:04.449Z,80.3
